Time;durP1;ratioP1;P1;durP2;ratioP2;P2;SDS_P1;SDS_P2;PMS_P1;PMS_P2;Temp;Humidity;BMP_temperature;BMP_pressure;BME280_temperature;BME280_humidity;BME280_pressure;Samples;Min_cycle;Max_cycle;Signal;HPM_P1;HPM_P2
2021/10/23 00:01:13;;;;;;;35.25;14.25;;;7.50;99.90;;;;;;5136817;27;20023;-58
2021/10/23 00:03:38;;;;;;;27.98;13.23;;;7.60;99.90;;;;;;5130345;27;20058;-58
2021/10/23 00:06:04;;;;;;;30.63;13.77;;;7.50;99.90;;;;;;5122648;27;20464;-59
2021/10/23 00:08:30;;;;;;;33.20;13.43;;;7.50;99.90;;;;;;5131167;27;20395;-58
2021/10/23 00:10:55;;;;;;;30.55;12.65;;;7.50;99.90;;;;;;5132229;27;20035;-59
2021/10/23 00:13:21;;;;;;;29.67;14.68;;;7.60;99.90;;;;;;5134090;27;20399;-57
2021/10/23 00:15:46;;;;;;;34.08;14.63;;;7.50;99.90;;;;;;5134545;27;20023;-58
2021/10/23 00:18:12;;;;;;;33.65;14.95;;;7.50;99.90;;;;;;5131009;27;20027;-55
2021/10/23 00:20:38;;;;;;;32.13;14.50;;;7.50;99.90;;;;;;5126245;27;20030;-60
2021/10/23 00:23:04;;;;;;;27.77;12.27;;;7.50;99.90;;;;;;5130288;27;20035;-57
2021/10/23 00:25:29;;;;;;;32.10;13.10;;;7.40;99.90;;;;;;5130419;27;20028;-57
2021/10/23 00:27:55;;;;;;;33.72;15.32;;;7.30;99.90;;;;;;5127613;27;20789;-56
2021/10/23 00:30:23;;;;;;;36.30;14.32;;;7.20;99.90;;;;;;5131767;27;20052;-55
2021/10/23 00:32:49;;;;;;;39.72;14.80;;;7.20;99.90;;;;;;5131224;27;20464;-60
2021/10/23 00:35:15;;;;;;;31.02;15.00;;;7.10;99.90;;;;;;5131247;27;20019;-58
2021/10/23 00:37:40;;;;;;;33.83;14.65;;;7.00;99.90;;;;;;5131908;27;20049;-59
2021/10/23 00:40:07;;;;;;;29.50;15.00;;;6.90;99.90;;;;;;5133885;27;20110;-57
2021/10/23 00:42:34;;;;;;;31.20;14.40;;;6.80;99.90;;;;;;5133366;27;20034;-58
2021/10/23 00:45:00;;;;;;;31.35;13.00;;;6.80;99.90;;;;;;5133988;27;20026;-57
2021/10/23 00:47:26;;;;;;;30.30;12.73;;;6.70;99.90;;;;;;5132624;27;20488;-57
2021/10/23 00:49:53;;;;;;;27.58;13.40;;;6.70;99.90;;;;;;5131890;27;20057;-59
2021/10/23 00:52:21;;;;;;;33.22;14.82;;;6.70;99.90;;;;;;5133210;27;20476;-57
2021/10/23 00:54:47;;;;;;;30.38;12.65;;;6.70;99.90;;;;;;5128302;27;20026;-57
2021/10/23 00:57:13;;;;;;;32.22;14.68;;;6.80;99.90;;;;;;5132304;27;20464;-57
2021/10/23 00:59:39;;;;;;;39.97;13.93;;;6.80;99.90;;;;;;5133306;27;20034;-58
2021/10/23 01:02:05;;;;;;;34.53;14.48;;;6.90;99.90;;;;;;5132780;27;20440;-58
2021/10/23 01:04:31;;;;;;;31.23;14.27;;;7.00;99.90;;;;;;5114866;27;20035;-60
2021/10/23 01:06:57;;;;;;;43.10;14.25;;;7.00;99.90;;;;;;5132110;27;20369;-58
2021/10/23 01:09:22;;;;;;;29.88;12.82;;;7.00;99.90;;;;;;5133166;27;20034;-58
2021/10/23 01:11:49;;;;;;;39.35;13.80;;;7.00;99.90;;;;;;5132544;27;20119;-58
2021/10/23 01:14:23;;;;;;;33.95;14.93;;;7.00;99.90;;;;;;5132175;27;20076;-59
2021/10/23 01:16:51;;;;;;;31.08;13.73;;;7.00;99.90;;;;;;5132658;27;20051;-57
2021/10/23 01:19:18;;;;;;;37.28;14.23;;;7.10;99.90;;;;;;5123705;27;20023;-52
2021/10/23 01:21:46;;;;;;;32.50;12.68;;;7.10;99.90;;;;;;5132344;27;20031;-55
2021/10/23 01:24:12;;;;;;;25.33;13.90;;;7.10;99.90;;;;;;5132892;27;20030;-50
2021/10/23 01:26:38;;;;;;;38.15;14.27;;;7.20;99.90;;;;;;5133514;27;20060;-56
2021/10/23 01:29:06;;;;;;;27.27;13.10;;;7.20;99.90;;;;;;5133405;27;20153;-53
2021/10/23 01:31:32;;;;;;;30.52;14.10;;;7.20;99.90;;;;;;5132432;27;20140;-58
2021/10/23 01:33:58;;;;;;;31.20;14.27;;;7.30;99.90;;;;;;5132387;27;20110;-59
2021/10/23 01:36:24;;;;;;;30.23;14.20;;;7.30;99.90;;;;;;5131212;27;20062;-60
2021/10/23 01:38:50;;;;;;;28.65;13.30;;;7.40;99.90;;;;;;5130875;27;20571;-57
2021/10/23 01:41:16;;;;;;;37.10;13.90;;;7.30;99.90;;;;;;5131089;27;20803;-59
2021/10/23 01:43:42;;;;;;;30.73;13.40;;;7.30;99.90;;;;;;5131600;27;20035;-56
2021/10/23 01:46:08;;;;;;;32.67;14.32;;;7.30;99.90;;;;;;5131252;27;20145;-56
2021/10/23 01:48:35;;;;;;;34.03;13.73;;;7.30;99.90;;;;;;5130955;27;20059;-56
2021/10/23 01:51:01;;;;;;;29.60;13.88;;;7.30;99.90;;;;;;5131451;27;20408;-58
2021/10/23 01:53:27;;;;;;;31.48;13.50;;;7.30;99.90;;;;;;5129692;27;20092;-59
2021/10/23 01:55:53;;;;;;;33.05;14.82;;;7.30;99.90;;;;;;5132858;27;20027;-60
2021/10/23 01:58:19;;;;;;;32.25;12.50;;;7.30;99.90;;;;;;5131945;27;20541;-58
2021/10/23 02:00:46;;;;;;;31.70;14.45;;;7.30;99.90;;;;;;5132581;27;20023;-57
2021/10/23 02:03:12;;;;;;;34.28;14.93;;;7.30;99.90;;;;;;5125535;27;20027;-58
2021/10/23 02:05:37;;;;;;;38.55;15.32;;;7.30;99.90;;;;;;5132141;27;20445;-59
2021/10/23 02:08:03;;;;;;;31.52;14.25;;;7.30;99.90;;;;;;5131708;27;20108;-59
2021/10/23 02:10:29;;;;;;;29.88;13.75;;;7.30;99.90;;;;;;5132114;27;20031;-59
2021/10/23 02:12:55;;;;;;;37.10;13.82;;;7.30;99.90;;;;;;5131954;27;20052;-61
2021/10/23 02:15:20;;;;;;;33.83;14.68;;;7.30;99.90;;;;;;5123619;27;20028;-60
2021/10/23 02:17:46;;;;;;;37.92;15.32;;;7.30;99.90;;;;;;5129032;27;20108;-60
2021/10/23 02:20:12;;;;;;;33.65;14.18;;;7.30;99.90;;;;;;5131919;27;20083;-61
2021/10/23 02:22:39;;;;;;;36.22;15.73;;;7.30;99.90;;;;;;5132474;27;20062;-60
2021/10/23 02:25:07;;;;;;;33.40;14.52;;;7.30;99.90;;;;;;5131675;27;20023;-61
2021/10/23 02:27:33;;;;;;;35.45;14.98;;;7.20;99.90;;;;;;5131573;27;20505;-59
2021/10/23 02:29:59;;;;;;;38.15;15.85;;;7.30;99.90;;;;;;5131401;27;20080;-58
2021/10/23 02:32:24;;;;;;;34.20;16.13;;;7.30;99.90;;;;;;5131850;27;20129;-59
2021/10/23 02:34:50;;;;;;;39.38;15.88;;;7.30;99.90;;;;;;5123627;27;20104;-60
2021/10/23 02:37:17;;;;;;;35.97;16.92;;;7.30;99.90;;;;;;5124030;27;20325;-61
2021/10/23 02:39:43;;;;;;;34.70;15.45;;;7.30;99.90;;;;;;5130754;27;20034;-59
2021/10/23 02:42:09;;;;;;;40.30;16.38;;;7.30;99.90;;;;;;5145318;22;20425;-56
2021/10/23 02:44:34;;;;;;;40.63;16.85;;;7.30;99.90;;;;;;5103614;28;20508;-60
2021/10/23 02:47:00;;;;;;;27.60;15.70;;;7.30;99.90;;;;;;5108870;28;20027;-59
2021/10/23 02:49:26;;;;;;;38.70;16.05;;;7.30;99.90;;;;;;5105824;28;20446;-60
2021/10/23 02:51:52;;;;;;;34.20;17.17;;;7.30;99.90;;;;;;5110940;28;20558;-58
2021/10/23 02:54:17;;;;;;;34.22;16.23;;;7.30;99.90;;;;;;5110585;28;20028;-58
2021/10/23 02:56:43;;;;;;;35.55;17.25;;;7.30;99.90;;;;;;5092743;28;20032;-60
2021/10/23 02:59:09;;;;;;;37.00;17.75;;;7.40;99.90;;;;;;5110780;28;20023;-59
2021/10/23 03:01:34;;;;;;;35.58;17.27;;;7.40;99.90;;;;;;5110790;28;20066;-58
2021/10/23 03:04:00;;;;;;;30.02;15.60;;;7.50;99.90;;;;;;5111179;28;20554;-55
2021/10/23 03:06:26;;;;;;;29.88;16.15;;;7.50;99.90;;;;;;5110663;28;20477;-60
2021/10/23 03:08:51;;;;;;;27.33;15.68;;;7.40;99.90;;;;;;5106991;28;20035;-59
2021/10/23 03:11:17;;;;;;;34.50;17.77;;;7.40;99.90;;;;;;5108401;28;20075;-56
2021/10/23 03:13:43;;;;;;;38.20;15.88;;;7.40;99.90;;;;;;5101478;28;20027;-59
2021/10/23 03:16:10;;;;;;;37.70;15.38;;;7.40;99.90;;;;;;5101994;28;20366;-60
2021/10/23 03:18:35;;;;;;;35.08;16.25;;;7.40;99.90;;;;;;5106114;28;20027;-58
2021/10/23 03:21:01;;;;;;;27.40;14.95;;;7.40;99.90;;;;;;5106528;28;20550;-60
2021/10/23 03:23:27;;;;;;;33.03;16.77;;;7.50;99.90;;;;;;5108445;28;20023;-57
2021/10/23 03:25:52;;;;;;;44.05;15.93;;;7.40;99.90;;;;;;5105580;28;20038;-60
2021/10/23 03:28:18;;;;;;;32.60;15.00;;;7.50;99.90;;;;;;5103896;28;20042;-57
2021/10/23 03:30:43;;;;;;;28.08;15.65;;;7.50;99.90;;;;;;5113120;28;20027;-57
2021/10/23 03:33:09;;;;;;;34.78;14.27;;;7.50;99.90;;;;;;5107585;28;20024;-59
2021/10/23 03:35:35;;;;;;;38.80;15.27;;;7.50;99.90;;;;;;5100579;28;20027;-58
2021/10/23 03:38:00;;;;;;;28.27;16.35;;;7.60;99.90;;;;;;5109418;28;20030;-60
2021/10/23 03:40:26;;;;;;;24.58;14.18;;;7.60;99.90;;;;;;5110186;28;20413;-58
2021/10/23 03:42:52;;;;;;;26.77;15.95;;;7.60;99.90;;;;;;5111093;28;20137;-61
2021/10/23 03:45:17;;;;;;;34.17;13.98;;;7.70;99.90;;;;;;5115874;27;20039;-59
2021/10/23 03:47:43;;;;;;;24.13;13.52;;;7.70;99.90;;;;;;5104094;27;20473;-58
2021/10/23 03:50:09;;;;;;;25.60;13.75;;;7.70;99.90;;;;;;5105226;28;20536;-58
2021/10/23 03:52:36;;;;;;;30.50;15.75;;;7.70;99.90;;;;;;5113848;28;20038;-56
2021/10/23 03:55:03;;;;;;;23.60;13.85;;;7.70;99.90;;;;;;5114488;28;20073;-59
2021/10/23 03:57:28;;;;;;;24.17;13.18;;;7.70;99.90;;;;;;5112713;27;20024;-58
2021/10/23 03:59:54;;;;;;;24.92;13.20;;;7.70;99.90;;;;;;5112679;28;20043;-57
2021/10/23 04:02:20;;;;;;;24.25;13.98;;;7.70;99.90;;;;;;5113421;28;20036;-58
2021/10/23 04:04:45;;;;;;;28.50;12.90;;;7.70;99.90;;;;;;5114037;28;20085;-59
2021/10/23 04:07:11;;;;;;;32.05;13.50;;;7.70;99.90;;;;;;5113475;28;20472;-59
2021/10/23 04:09:36;;;;;;;26.27;13.25;;;7.70;99.90;;;;;;5115754;27;20027;-60
2021/10/23 04:12:02;;;;;;;23.15;13.30;;;7.70;99.90;;;;;;5104257;28;20110;-60
2021/10/23 04:14:28;;;;;;;28.48;14.25;;;7.70;99.90;;;;;;5110499;28;20054;-59
2021/10/23 04:16:53;;;;;;;29.20;12.57;;;7.70;99.90;;;;;;5109072;27;20030;-60
2021/10/23 04:19:19;;;;;;;29.63;13.85;;;7.70;99.90;;;;;;5105455;27;20053;-59
2021/10/23 04:21:44;;;;;;;22.23;13.30;;;7.70;99.90;;;;;;5111197;27;20035;-58
2021/10/23 04:24:10;;;;;;;24.90;13.52;;;7.70;99.90;;;;;;5107069;27;20031;-60
2021/10/23 04:26:39;;;;;;;30.63;14.25;;;7.70;99.90;;;;;;5107818;28;20047;-59
2021/10/23 04:29:06;;;;;;;30.30;13.68;;;7.70;99.90;;;;;;5108605;27;21781;-59
2021/10/23 04:31:32;;;;;;;29.77;14.85;;;7.70;99.90;;;;;;5107891;27;20121;-60
2021/10/23 04:33:58;;;;;;;28.77;15.43;;;7.70;99.90;;;;;;5112602;28;20020;-58
2021/10/23 04:36:23;;;;;;;26.92;16.20;;;7.70;99.90;;;;;;5103112;28;20035;-59
2021/10/23 04:38:49;;;;;;;30.15;15.38;;;7.70;99.90;;;;;;5110558;28;20035;-60
2021/10/23 04:41:14;;;;;;;20.55;13.20;;;7.70;99.90;;;;;;5107012;27;20032;-55
2021/10/23 04:43:40;;;;;;;24.13;15.02;;;7.70;99.90;;;;;;5110022;28;20069;-59
2021/10/23 04:46:05;;;;;;;26.65;14.77;;;7.70;99.90;;;;;;5111325;27;20040;-60
2021/10/23 04:48:35;;;;;;;29.60;14.55;;;7.70;99.90;;;;;;5108223;28;20035;-58
2021/10/23 04:51:01;;;;;;;23.15;13.43;;;7.70;99.90;;;;;;5103970;28;20127;-60
2021/10/23 04:53:27;;;;;;;25.33;13.68;;;7.70;99.90;;;;;;5110466;27;20031;-61
2021/10/23 04:55:52;;;;;;;29.92;13.90;;;7.70;99.90;;;;;;5103888;27;20034;-59
2021/10/23 04:58:18;;;;;;;24.60;13.40;;;7.70;99.90;;;;;;5112250;27;20016;-60
2021/10/23 05:00:44;;;;;;;22.48;13.20;;;7.70;99.90;;;;;;5112783;28;20039;-60
2021/10/23 05:03:09;;;;;;;21.02;13.02;;;7.70;99.90;;;;;;5113035;28;20080;-57
2021/10/23 05:05:35;;;;;;;23.00;12.93;;;7.70;99.90;;;;;;5113109;28;20136;-59
2021/10/23 05:08:00;;;;;;;24.27;14.57;;;7.70;99.90;;;;;;5104587;27;20559;-60
2021/10/23 05:10:26;;;;;;;22.83;13.63;;;7.70;99.90;;;;;;5106248;28;20027;-60
2021/10/23 05:12:52;;;;;;;22.63;13.18;;;7.70;99.90;;;;;;5104035;28;20102;-58
2021/10/23 05:15:17;;;;;;;21.17;12.70;;;7.70;99.90;;;;;;5112403;28;20020;-60
2021/10/23 05:17:43;;;;;;;24.25;13.57;;;7.70;99.90;;;;;;5105393;27;20031;-59
2021/10/23 05:20:09;;;;;;;27.40;13.52;;;7.70;99.90;;;;;;5103772;28;20027;-59
2021/10/23 05:22:34;;;;;;;20.73;12.57;;;7.70;99.90;;;;;;5110744;28;20046;-59
2021/10/23 05:25:00;;;;;;;22.73;11.63;;;7.70;99.90;;;;;;5112356;28;20023;-60
2021/10/23 05:27:26;;;;;;;20.58;13.48;;;7.70;99.90;;;;;;5109072;27;20378;-59
2021/10/23 05:29:52;;;;;;;24.40;12.80;;;7.70;99.90;;;;;;5109136;28;20057;-60
2021/10/23 05:32:18;;;;;;;21.33;12.10;;;7.80;99.90;;;;;;5104967;27;20032;-59
2021/10/23 05:34:44;;;;;;;20.25;10.90;;;7.80;99.90;;;;;;5107389;28;20102;-60
2021/10/23 05:37:09;;;;;;;23.50;11.05;;;7.80;99.90;;;;;;5109798;28;20068;-60
2021/10/23 05:39:35;;;;;;;23.80;10.73;;;7.80;99.90;;;;;;5110804;28;20031;-60
2021/10/23 05:42:00;;;;;;;17.50;11.30;;;7.80;99.90;;;;;;5101983;28;20826;-61
2021/10/23 05:44:26;;;;;;;15.75;10.45;;;7.80;99.90;;;;;;5112089;28;20397;-60
2021/10/23 05:46:51;;;;;;;19.42;10.80;;;7.80;99.90;;;;;;5108340;27;20035;-62
2021/10/23 05:49:17;;;;;;;21.58;10.73;;;7.80;99.90;;;;;;5107683;27;20098;-59
2021/10/23 05:51:43;;;;;;;23.58;10.93;;;7.80;99.90;;;;;;5107804;28;20082;-59
2021/10/23 05:54:08;;;;;;;17.98;9.68;;;7.80;99.90;;;;;;5110167;28;20027;-60
2021/10/23 05:56:34;;;;;;;20.77;10.80;;;7.80;99.90;;;;;;5100300;28;20020;-59
2021/10/23 05:59:10;;;;;;;24.02;9.35;;;7.80;99.90;;;;;;5106882;28;20027;-58
2021/10/23 06:01:36;;;;;;;18.08;9.85;;;7.80;99.90;;;;;;5102638;28;20049;-60
2021/10/23 06:04:01;;;;;;;13.07;9.00;;;7.80;99.90;;;;;;5111476;28;20064;-59
2021/10/23 06:06:27;;;;;;;29.98;11.20;;;7.80;99.90;;;;;;5110447;28;20039;-57
2021/10/23 06:08:52;;;;;;;17.48;9.57;;;7.80;99.90;;;;;;5100413;28;20036;-60
2021/10/23 06:11:18;;;;;;;19.60;9.18;;;7.80;99.90;;;;;;5104835;28;20116;-58
2021/10/23 06:13:43;;;;;;;16.63;9.00;;;7.90;99.90;;;;;;5108738;28;20031;-59
2021/10/23 06:16:09;;;;;;;17.05;9.07;;;7.90;99.90;;;;;;5113684;27;20018;-59
2021/10/23 06:18:35;;;;;;;10.73;8.43;;;7.90;99.90;;;;;;5103240;27;20019;-59
2021/10/23 06:21:00;;;;;;;18.00;8.50;;;7.90;99.90;;;;;;5106776;28;20455;-58
2021/10/23 06:23:30;;;;;;;18.17;9.10;;;7.90;99.90;;;;;;5110959;28;20073;-60
2021/10/23 06:25:56;;;;;;;15.18;9.27;;;7.90;99.90;;;;;;5104528;27;20389;-60
2021/10/23 06:28:22;;;;;;;16.75;9.82;;;7.90;99.90;;;;;;5102997;28;20063;-61
2021/10/23 06:30:47;;;;;;;12.57;8.00;;;7.90;99.90;;;;;;5104418;28;20047;-58
2021/10/23 06:33:13;;;;;;;16.08;9.93;;;8.00;99.90;;;;;;5103141;27;20031;-57
2021/10/23 06:35:38;;;;;;;20.30;10.27;;;8.00;99.90;;;;;;5103467;28;20034;-60
2021/10/23 06:38:04;;;;;;;16.02;10.30;;;8.00;99.90;;;;;;5111099;27;20020;-60
2021/10/23 06:40:30;;;;;;;20.75;11.07;;;8.00;99.90;;;;;;5109756;28;20108;-56
2021/10/23 06:42:55;;;;;;;17.85;10.30;;;8.00;99.90;;;;;;5107727;28;20043;-58
2021/10/23 06:45:21;;;;;;;11.45;8.98;;;8.10;99.90;;;;;;5110326;28;20024;-60
2021/10/23 06:47:46;;;;;;;23.45;9.73;;;8.10;99.90;;;;;;5106752;28;20031;-60
2021/10/23 06:50:15;;;;;;;20.08;10.38;;;8.10;99.90;;;;;;5100274;28;20039;-59
2021/10/23 06:52:40;;;;;;;21.17;10.55;;;8.10;99.90;;;;;;5111511;27;20027;-59
2021/10/23 06:55:06;;;;;;;14.93;9.20;;;8.10;99.90;;;;;;5107871;28;20024;-60
2021/10/23 06:57:32;;;;;;;14.15;8.90;;;8.10;99.90;;;;;;5109171;28;20077;-56
2021/10/23 06:59:58;;;;;;;17.70;9.48;;;8.10;99.90;;;;;;5084710;28;20016;-61
2021/10/23 07:02:23;;;;;;;16.33;8.82;;;8.20;99.90;;;;;;5066553;28;20035;-60
2021/10/23 07:04:49;;;;;;;18.52;8.90;;;8.10;99.90;;;;;;5102972;28;20087;-61
2021/10/23 07:07:14;;;;;;;15.85;8.75;;;8.20;99.90;;;;;;5107837;28;20034;-60
2021/10/23 07:09:40;;;;;;;16.23;8.55;;;8.20;99.90;;;;;;5109096;28;20024;-59
2021/10/23 07:12:06;;;;;;;16.95;9.85;;;8.20;99.90;;;;;;5109642;28;20035;-59
2021/10/23 07:14:31;;;;;;;12.13;7.30;;;8.20;99.90;;;;;;5106077;28;20028;-59
2021/10/23 07:16:57;;;;;;;12.68;7.68;;;8.20;99.90;;;;;;5104842;28;20027;-61
2021/10/23 07:19:23;;;;;;;14.65;8.35;;;8.20;99.90;;;;;;5111020;27;20035;-57
2021/10/23 07:21:48;;;;;;;19.75;9.48;;;8.30;99.90;;;;;;5107040;27;20081;-60
2021/10/23 07:24:17;;;;;;;25.70;13.40;;;8.40;99.90;;;;;;5102332;28;20024;-60
2021/10/23 07:26:42;;;;;;;17.85;12.25;;;8.50;99.90;;;;;;5106413;28;20657;-61
2021/10/23 07:29:09;;;;;;;16.25;9.38;;;8.70;99.90;;;;;;5116089;27;20106;-60
2021/10/23 07:31:34;;;;;;;15.40;8.27;;;8.70;99.90;;;;;;5103287;28;20462;-59
2021/10/23 07:34:01;;;;;;;14.10;6.22;;;8.80;99.90;;;;;;5113742;28;20057;-59
2021/10/23 07:36:27;;;;;;;16.77;6.10;;;8.80;99.90;;;;;;5113718;28;20461;-60
2021/10/23 07:38:53;;;;;;;9.57;5.10;;;8.90;99.90;;;;;;5109198;27;20042;-60
2021/10/23 07:41:19;;;;;;;15.07;5.10;;;8.90;99.90;;;;;;5102675;28;20099;-59
2021/10/23 07:43:45;;;;;;;9.88;5.80;;;8.90;99.90;;;;;;5113300;28;20061;-56
2021/10/23 07:46:11;;;;;;;9.40;4.95;;;8.90;99.90;;;;;;5115194;27;20031;-60
2021/10/23 07:48:37;;;;;;;14.00;6.60;;;8.90;99.90;;;;;;5102206;27;20043;-60
2021/10/23 07:51:04;;;;;;;15.40;7.78;;;8.80;99.90;;;;;;5107561;27;20036;-60
2021/10/23 07:53:30;;;;;;;13.25;6.72;;;8.80;99.90;;;;;;5112565;28;20027;-60
2021/10/23 07:55:55;;;;;;;9.63;5.70;;;8.70;99.90;;;;;;5113310;28;20408;-59
2021/10/23 07:58:21;;;;;;;13.38;5.53;;;8.80;99.90;;;;;;5112784;28;20481;-58
2021/10/23 08:00:51;;;;;;;10.43;5.40;;;8.80;99.90;;;;;;5104542;28;20748;-60
2021/10/23 08:03:16;;;;;;;127.10;76.10;;;8.90;99.90;;;;;;5113127;28;20039;-60
2021/10/23 08:05:42;;;;;;;49.67;29.95;;;8.90;99.90;;;;;;5113382;28;20027;-60
2021/10/23 08:08:07;;;;;;;30.73;15.38;;;9.00;99.90;;;;;;5112563;28;20023;-59
2021/10/23 08:10:35;;;;;;;16.85;6.15;;;9.10;99.90;;;;;;5111640;27;20067;-63
2021/10/23 08:13:02;;;;;;;12.00;5.60;;;9.40;99.90;;;;;;5104128;27;20470;-59
2021/10/23 08:15:28;;;;;;;9.48;4.55;;;9.60;99.90;;;;;;5112592;28;20054;-59
2021/10/23 08:17:55;;;;;;;16.83;10.02;;;9.70;99.90;;;;;;5112357;28;20396;-58
2021/10/23 08:20:20;;;;;;;14.50;6.03;;;9.80;99.90;;;;;;5121974;27;20499;-57
2021/10/23 08:22:46;;;;;;;12.48;5.55;;;10.00;99.90;;;;;;5110130;28;20024;-56
2021/10/23 08:25:13;;;;;;;9.75;4.40;;;10.10;99.90;;;;;;5108286;28;20034;-56
2021/10/23 08:27:40;;;;;;;10.60;4.65;;;10.30;99.90;;;;;;5111805;28;20129;-56
2021/10/23 08:30:08;;;;;;;10.52;4.30;;;10.50;99.90;;;;;;5112219;28;20108;-58
2021/10/23 08:32:34;;;;;;;9.35;5.15;;;10.60;99.90;;;;;;5109716;27;20092;-59
2021/10/23 08:35:00;;;;;;;13.52;5.65;;;10.60;99.90;;;;;;5111924;27;20019;-58
2021/10/23 08:37:26;;;;;;;9.15;4.85;;;10.70;99.90;;;;;;5106396;28;20541;-59
2021/10/23 08:39:52;;;;;;;12.20;4.43;;;10.90;99.90;;;;;;5106642;28;20084;-58
2021/10/23 08:42:18;;;;;;;8.25;4.53;;;11.20;99.90;;;;;;5101531;27;20066;-58
2021/10/23 08:44:45;;;;;;;8.15;4.45;;;11.40;99.90;;;;;;5110991;28;20039;-57
2021/10/23 08:47:13;;;;;;;18.20;5.05;;;11.40;99.90;;;;;;5111126;28;20027;-54
2021/10/23 08:49:42;;;;;;;13.88;6.07;;;11.30;99.90;;;;;;5111999;28;20065;-57
2021/10/23 08:52:08;;;;;;;13.88;5.93;;;11.40;99.90;;;;;;5112118;28;20031;-57
2021/10/23 08:54:35;;;;;;;12.52;5.95;;;11.50;99.90;;;;;;5112432;28;20038;-56
2021/10/23 08:57:02;;;;;;;9.82;6.75;;;11.40;99.90;;;;;;5109269;28;20528;-58
2021/10/23 08:59:27;;;;;;;10.70;6.45;;;11.70;99.90;;;;;;5112072;27;20066;-58
2021/10/23 09:02:01;;;;;;;7.50;5.28;;;12.00;99.90;;;;;;5077799;27;20509;-57
2021/10/23 09:04:31;;;;;;;12.90;6.28;;;12.30;99.90;;;;;;5102832;28;20748;-56
2021/10/23 09:07:24;;;;;;;11.60;6.10;;;12.30;99.90;;;;;;5105850;28;20074;-57
2021/10/23 09:09:53;;;;;;;12.18;6.85;;;12.20;99.90;;;;;;5106166;28;20436;-58
2021/10/23 09:12:28;;;;;;;25.95;9.57;;;12.20;99.90;;;;;;5110161;28;20503;-57
2021/10/23 09:15:16;;;;;;;26.27;10.30;;;12.10;99.90;;;;;;5107430;28;21738;-59
2021/10/23 09:17:51;;;;;;;34.85;18.08;;;11.80;99.90;;;;;;5107975;27;20027;-57
2021/10/23 09:20:18;;;;;;;29.13;12.93;;;12.00;99.90;;;;;;5104300;27;20533;-59
2021/10/23 09:22:49;;;;;;;25.10;11.25;;;12.20;99.90;;;;;;5108860;28;20463;-59
2021/10/23 09:25:15;;;;;;;16.27;9.90;;;12.50;99.90;;;;;;5108554;28;20428;-57
2021/10/23 09:28:06;;;;;;;20.10;9.98;;;12.70;99.90;;;;;;5107669;28;20027;-59
2021/10/23 09:30:40;;;;;;;27.00;12.55;;;12.50;99.90;;;;;;5107514;28;20024;-57
2021/10/23 09:33:08;;;;;;;43.13;21.55;;;12.50;99.90;;;;;;5109237;28;20034;-57
2021/10/23 09:35:45;;;;;;;29.17;13.55;;;12.20;99.90;;;;;;5111382;28;20032;-59
2021/10/23 09:38:13;;;;;;;25.70;12.75;;;12.10;99.90;;;;;;5111153;28;20031;-58
2021/10/23 09:40:40;;;;;;;24.55;14.52;;;12.00;99.90;;;;;;5110173;28;20055;-59
2021/10/23 09:43:18;;;;;;;20.15;11.40;;;12.00;99.90;;;;;;5111080;28;20094;-58
2021/10/23 09:45:58;;;;;;;18.40;9.75;;;11.90;99.90;;;;;;5110778;28;20024;-58
2021/10/23 09:48:44;;;;;;;23.27;11.90;;;12.10;99.90;;;;;;5110624;28;20071;-59
2021/10/23 09:51:22;;;;;;;24.48;12.18;;;12.20;99.90;;;;;;5110404;28;20035;-57
2021/10/23 09:53:50;;;;;;;21.60;10.80;;;12.20;99.90;;;;;;5107409;27;20035;-59
2021/10/23 09:56:24;;;;;;;18.13;10.65;;;12.30;99.90;;;;;;5110364;28;20028;-57
2021/10/23 09:58:53;;;;;;;18.55;9.68;;;12.40;99.90;;;;;;5109676;28;20028;-55
2021/10/23 10:01:25;;;;;;;19.83;9.45;;;12.70;99.90;;;;;;5092747;28;20462;-59
2021/10/23 10:03:53;;;;;;;23.85;11.65;;;12.90;99.90;;;;;;5110531;28;20050;-57
2021/10/23 10:06:20;;;;;;;34.35;13.73;;;12.80;99.90;;;;;;5104410;27;20031;-60
2021/10/23 10:08:50;;;;;;;15.85;7.95;;;12.50;99.90;;;;;;5105420;28;20081;-59
2021/10/23 10:11:16;;;;;;;15.95;8.60;;;12.40;99.90;;;;;;5102105;28;20016;-57
2021/10/23 10:13:42;;;;;;;18.40;8.35;;;12.50;99.90;;;;;;5108880;28;20040;-59
2021/10/23 10:16:10;;;;;;;14.52;7.07;;;12.70;99.90;;;;;;5123160;27;20026;-59
2021/10/23 10:18:39;;;;;;;11.77;6.70;;;12.80;99.90;;;;;;5108694;28;20655;-59
2021/10/23 10:21:07;;;;;;;19.17;7.03;;;12.90;99.90;;;;;;5094226;28;20035;-58
2021/10/23 10:23:39;;;;;;;13.85;5.50;;;12.90;99.90;;;;;;5102226;28;20042;-58
2021/10/23 10:26:26;;;;;;;11.70;5.72;;;12.70;99.90;;;;;;5094556;28;20031;-57
2021/10/23 10:29:25;;;;;;;21.75;11.57;;;12.50;99.90;;;;;;5101493;27;20045;-55
2021/10/23 10:32:08;;;;;;;18.63;7.72;;;12.70;99.90;;;;;;5099959;28;20108;-60
2021/10/23 10:34:44;;;;;;;23.40;12.48;;;12.80;99.90;;;;;;5110234;28;20050;-59
2021/10/23 10:37:39;;;;;;;18.05;8.57;;;12.90;99.90;;;;;;5110626;28;20035;-58
2021/10/23 10:40:19;;;;;;;21.88;12.25;;;12.90;99.90;;;;;;5109485;28;20059;-58
2021/10/23 10:42:52;;;;;;;26.67;14.60;;;12.80;99.90;;;;;;5108050;28;20023;-59
2021/10/23 10:45:38;;;;;;;16.73;9.30;;;12.70;99.90;;;;;;5109481;28;20035;-57
2021/10/23 10:48:26;;;;;;;28.83;15.57;;;12.60;99.90;;;;;;5109933;28;20046;-58
2021/10/23 10:50:59;;;;;;;18.05;12.20;;;12.50;99.90;;;;;;5105699;28;20035;-59
2021/10/23 10:53:28;;;;;;;24.90;10.02;;;12.30;99.90;;;;;;5109863;28;20089;-59
2021/10/23 10:55:55;;;;;;;16.88;9.38;;;12.30;99.90;;;;;;5109951;28;20032;-57
2021/10/23 10:58:46;;;;;;;20.73;8.85;;;12.30;99.90;;;;;;5109414;28;20022;-57
2021/10/23 11:01:22;;;;;;;14.45;8.20;;;12.20;99.90;;;;;;5087530;28;20074;-58
2021/10/23 11:03:48;;;;;;;17.15;9.55;;;12.20;99.90;;;;;;5110139;28;20027;-58
2021/10/23 11:06:35;;;;;;;15.95;8.82;;;12.20;99.90;;;;;;5110642;28;20092;-56
2021/10/23 11:09:12;;;;;;;11.10;6.93;;;12.10;99.90;;;;;;5104337;28;20020;-58
2021/10/23 11:11:44;;;;;;;15.23;7.55;;;12.10;99.90;;;;;;5108429;28;20040;-58
2021/10/23 11:14:19;;;;;;;14.68;8.15;;;12.00;99.90;;;;;;5108260;28;20027;-58
2021/10/23 11:16:58;;;;;;;18.45;8.32;;;12.00;99.90;;;;;;5105820;28;20023;-58
2021/10/23 11:19:27;;;;;;;15.50;6.75;;;12.00;99.90;;;;;;5109551;28;20038;-59
2021/10/23 11:22:18;;;;;;;20.35;8.38;;;12.00;99.90;;;;;;5110355;28;20061;-56
2021/10/23 11:24:45;;;;;;;15.68;7.78;;;12.00;99.90;;;;;;5104561;28;20028;-58
2021/10/23 11:27:30;;;;;;;17.38;7.78;;;11.90;99.90;;;;;;5109347;28;20027;-55
2021/10/23 11:30:18;;;;;;;14.30;8.25;;;11.90;99.90;;;;;;5109437;28;20107;-58
2021/10/23 11:32:56;;;;;;;20.80;8.00;;;11.90;99.90;;;;;;5108320;28;20428;-58
2021/10/23 11:35:46;;;;;;;17.50;6.68;;;11.90;99.90;;;;;;5109999;28;20042;-59
2021/10/23 11:38:26;;;;;;;12.43;7.32;;;11.90;99.90;;;;;;5107509;28;20027;-59
2021/10/23 11:40:54;;;;;;;11.60;6.38;;;11.90;99.90;;;;;;5109707;28;20056;-58
2021/10/23 11:43:20;;;;;;;12.43;6.97;;;12.00;99.90;;;;;;5105382;28;20032;-59
2021/10/23 11:45:46;;;;;;;17.90;7.88;;;11.90;99.90;;;;;;5109776;28;20035;-59
2021/10/23 11:48:13;;;;;;;14.40;7.72;;;11.80;99.90;;;;;;5109356;28;20703;-57
2021/10/23 11:50:44;;;;;;;14.10;7.00;;;11.80;99.90;;;;;;5108349;28;20102;-59
2021/10/23 11:53:20;;;;;;;16.38;7.13;;;11.70;99.90;;;;;;5106861;28;20439;-57
2021/10/23 11:55:48;;;;;;;15.27;8.52;;;11.70;99.90;;;;;;5110299;28;20472;-57
2021/10/23 11:58:19;;;;;;;19.30;8.05;;;11.70;99.90;;;;;;5108060;28;20024;-58
2021/10/23 12:00:57;;;;;;;18.02;8.23;;;11.60;99.90;;;;;;5108885;28;20023;-56
2021/10/23 12:03:39;;;;;;;13.65;7.90;;;11.60;99.90;;;;;;5088739;28;20074;-56
2021/10/23 12:06:14;;;;;;;18.38;8.25;;;11.70;99.90;;;;;;5114061;28;20032;-59
2021/10/23 12:08:40;;;;;;;20.92;9.73;;;11.60;99.90;;;;;;5108377;28;20023;-59
2021/10/23 12:11:20;;;;;;;14.45;7.47;;;11.70;99.90;;;;;;5109624;28;20035;-58
2021/10/23 12:13:53;;;;;;;16.48;7.57;;;11.60;99.90;;;;;;5109865;28;20119;-59
2021/10/23 12:16:30;;;;;;;24.70;8.18;;;11.60;99.90;;;;;;5105765;28;20552;-56
2021/10/23 12:19:09;;;;;;;10.10;6.28;;;11.70;99.90;;;;;;5109515;28;20027;-58
2021/10/23 12:21:49;;;;;;;14.65;6.80;;;11.80;99.90;;;;;;5101273;28;20136;-59
2021/10/23 12:24:21;;;;;;;16.27;6.75;;;11.70;99.90;;;;;;5112714;28;20038;-59
2021/10/23 12:27:03;;;;;;;20.25;7.13;;;11.70;99.90;;;;;;5113152;28;20084;-60
2021/10/23 12:29:55;;;;;;;21.08;8.85;;;11.70;99.90;;;;;;5112313;28;20048;-55
2021/10/23 12:32:26;;;;;;;13.57;8.65;;;11.70;99.90;;;;;;5111825;28;20019;-59
2021/10/23 12:34:52;;;;;;;20.95;9.10;;;11.60;99.90;;;;;;5101975;28;20023;-57
2021/10/23 12:37:27;;;;;;;18.70;8.80;;;11.70;99.90;;;;;;5108857;28;20019;-55
2021/10/23 12:40:14;;;;;;;18.25;7.97;;;11.80;99.90;;;;;;5109806;28;20039;-59
2021/10/23 12:42:42;;;;;;;15.05;8.30;;;11.80;99.90;;;;;;5113059;28;20508;-54
2021/10/23 12:45:10;;;;;;;17.15;7.78;;;11.70;99.90;;;;;;5111937;28;20378;-57